createdAt,value
2024-01-25T00:02:19.192Z,100887.91
2024-01-25T00:04:46.296Z,100905.47
2024-01-25T00:07:14.080Z,100900.00
2024-01-25T00:09:41.357Z,100888.78
2024-01-25T00:12:08.440Z,100876.22
2024-01-25T00:14:35.391Z,100886.44
2024-01-25T00:17:02.391Z,100880.63
2024-01-25T00:19:29.347Z,100889.63
2024-01-25T00:21:56.491Z,100897.94
2024-01-25T00:24:23.498Z,100891.13
2024-01-25T00:26:50.483Z,100884.22
2024-01-25T00:29:17.726Z,100892.63
2024-01-25T00:31:44.925Z,100906.72
2024-01-25T00:34:14.615Z,100902.00
2024-01-25T00:36:42.012Z,100887.63
2024-01-25T00:39:09.548Z,100876.72
2024-01-25T00:41:37.012Z,100869.28
2024-01-25T00:44:04.271Z,100868.53
2024-01-25T00:46:31.448Z,100871.72
2024-01-25T00:48:59.058Z,100885.31
2024-01-25T00:51:26.369Z,100893.28
2024-01-25T00:53:53.541Z,100893.13
2024-01-25T00:56:20.934Z,100898.75
2024-01-25T00:58:48.260Z,100886.75
2024-01-25T01:01:15.735Z,100879.56
2024-01-25T01:03:43.198Z,100876.72
2024-01-25T01:06:11.028Z,100879.94
2024-01-25T01:08:38.412Z,100890.31
2024-01-25T01:11:06.167Z,100893.00
2024-01-25T01:13:33.248Z,100880.13
2024-01-25T01:16:00.316Z,100889.13
2024-01-25T01:18:27.384Z,100900.03
2024-01-25T01:20:54.399Z,100896.31
2024-01-25T01:23:21.571Z,100898.47
2024-01-25T01:25:48.587Z,100892.13
2024-01-25T01:28:16.164Z,100896.66
2024-01-25T01:30:43.355Z,100894.81
2024-01-25T01:33:10.758Z,100881.13
2024-01-25T01:35:38.141Z,100888.50
2024-01-25T01:38:05.410Z,100903.84
2024-01-25T01:40:32.971Z,100881.97
2024-01-25T01:43:03.511Z,100876.63
2024-01-25T01:45:30.859Z,100886.66
2024-01-25T01:47:58.648Z,100888.47
2024-01-25T01:50:26.126Z,100885.50
2024-01-25T01:52:53.446Z,100869.97
2024-01-25T01:55:21.015Z,100886.66
2024-01-25T01:57:48.570Z,100879.66
2024-01-25T02:00:17.989Z,100880.00
2024-01-25T02:02:46.305Z,100880.50
2024-01-25T02:05:14.607Z,100881.00
2024-01-25T02:07:42.155Z,100892.69
2024-01-25T02:10:12.920Z,100898.03
2024-01-25T02:12:40.088Z,100907.38
2024-01-25T02:15:07.339Z,100898.84
2024-01-25T02:17:34.539Z,100898.19
2024-01-25T02:20:04.162Z,100887.03
2024-01-25T02:22:31.377Z,100884.66
2024-01-25T02:24:58.353Z,100877.19
2024-01-25T02:27:25.448Z,100880.00
2024-01-25T02:29:52.516Z,100879.00
2024-01-25T02:32:19.694Z,100888.84
2024-01-25T02:34:46.762Z,100884.88
2024-01-25T02:37:18.606Z,100894.19
2024-01-25T02:39:46.304Z,100902.22
2024-01-25T02:42:14.803Z,100895.03
2024-01-25T02:44:41.973Z,100880.84
2024-01-25T02:47:08.876Z,100898.53
2024-01-25T02:49:36.222Z,100895.53
2024-01-25T02:52:04.138Z,100878.66
2024-01-25T02:54:31.307Z,100873.66
2024-01-25T02:56:58.247Z,100875.50
2024-01-25T02:59:27.965Z,100876.34
2024-01-25T03:01:56.163Z,100873.00
2024-01-25T03:04:23.410Z,100858.78
2024-01-25T03:06:50.773Z,100865.63
2024-01-25T03:09:18.566Z,100867.31
2024-01-25T03:11:45.460Z,100862.66
2024-01-25T03:14:12.495Z,100868.97
2024-01-25T03:16:39.472Z,100869.81
2024-01-25T03:19:06.623Z,100877.00
2024-01-25T03:21:35.100Z,100878.16
2024-01-25T03:24:02.418Z,100877.00
2024-01-25T03:26:29.823Z,100873.50
2024-01-25T03:28:56.813Z,100884.16
2024-01-25T03:31:23.914Z,100901.03
2024-01-25T03:33:51.046Z,100879.69
2024-01-25T03:36:18.401Z,100874.31
2024-01-25T03:38:45.402Z,100863.63
2024-01-25T03:41:12.363Z,100857.97
2024-01-25T03:43:44.229Z,100857.47
2024-01-25T03:46:13.384Z,100859.81
2024-01-25T03:48:40.560Z,100865.81
2024-01-25T03:51:08.070Z,100864.47
2024-01-25T03:53:35.005Z,100854.13
2024-01-25T03:56:02.058Z,100846.44
2024-01-25T03:58:29.765Z,100846.63
2024-01-25T04:00:56.844Z,100853.28
2024-01-25T04:03:24.024Z,100849.28
2024-01-25T04:05:51.035Z,100847.28
2024-01-25T04:08:18.022Z,100855.13
2024-01-25T04:10:45.009Z,100850.09
2024-01-25T04:13:11.948Z,100860.81
2024-01-25T04:15:39.050Z,100853.13
2024-01-25T04:18:06.349Z,100849.97
2024-01-25T04:20:35.773Z,100849.13
2024-01-25T04:23:03.251Z,100841.09
2024-01-25T04:25:33.253Z,100857.63
2024-01-25T04:28:01.714Z,100864.97
2024-01-25T04:30:28.908Z,100857.31
2024-01-25T04:32:57.650Z,100852.47
2024-01-25T04:35:24.662Z,100855.63
2024-01-25T04:37:52.269Z,100854.63
2024-01-25T04:40:19.396Z,100854.94
2024-01-25T04:42:46.868Z,100847.13
2024-01-25T04:45:13.811Z,100838.94
2024-01-25T04:47:41.314Z,100862.31
2024-01-25T04:50:09.138Z,100848.59
2024-01-25T04:52:36.315Z,100853.44
2024-01-25T04:55:03.408Z,100846.28
2024-01-25T04:57:30.700Z,100864.28
2024-01-25T04:59:57.782Z,100842.88
2024-01-25T05:02:25.121Z,100846.91
2024-01-25T05:04:52.195Z,100854.59
2024-01-25T05:07:19.311Z,100852.44
2024-01-25T05:09:46.467Z,100845.91
2024-01-25T05:12:13.488Z,100863.78
2024-01-25T05:14:40.809Z,100868.63
2024-01-25T05:17:07.825Z,100875.47
2024-01-25T05:19:34.930Z,100884.50
2024-01-25T05:22:02.947Z,100871.28
2024-01-25T05:24:34.345Z,100873.16
2024-01-25T05:27:01.504Z,100882.97
2024-01-25T05:29:28.433Z,100879.16
2024-01-25T05:31:55.540Z,100879.16
2024-01-25T05:34:22.693Z,100884.34
2024-01-25T05:36:49.748Z,100873.97
2024-01-25T05:39:16.740Z,100877.50
2024-01-25T05:41:46.313Z,100872.50
2024-01-25T05:44:14.150Z,100887.66
2024-01-25T05:46:41.569Z,100893.69
2024-01-25T05:49:08.796Z,100870.16
2024-01-25T05:51:36.364Z,100896.38
2024-01-25T05:54:03.824Z,100905.38
2024-01-25T05:56:31.205Z,100910.53
2024-01-25T05:58:58.379Z,100915.53
2024-01-25T06:01:26.239Z,100902.38
2024-01-25T06:03:53.515Z,100926.41
2024-01-25T06:06:20.718Z,100914.88
2024-01-25T06:08:54.948Z,100927.97
2024-01-25T06:11:26.025Z,100920.66
2024-01-25T06:13:53.085Z,100925.97
2024-01-25T06:16:20.341Z,100927.19
2024-01-25T06:18:50.261Z,100938.50
2024-01-25T06:21:17.705Z,100946.28
2024-01-25T06:23:44.739Z,100944.72
2024-01-25T06:26:12.081Z,100934.44
2024-01-25T06:28:39.083Z,100942.94
2024-01-25T06:31:06.300Z,100926.69
2024-01-25T06:33:33.488Z,100951.97
2024-01-25T06:36:01.624Z,100957.31
2024-01-25T06:38:28.540Z,100952.63
2024-01-25T06:40:55.919Z,100952.97
2024-01-25T06:43:23.003Z,100935.81
2024-01-25T06:45:50.126Z,100944.13
2024-01-25T06:48:20.562Z,100951.22
2024-01-25T06:50:48.108Z,100967.88
2024-01-25T06:53:15.174Z,100970.84
2024-01-25T06:55:43.429Z,100976.03
2024-01-25T06:58:10.694Z,100982.00
2024-01-25T07:00:40.103Z,100982.69
2024-01-25T07:03:07.800Z,100991.53
2024-01-25T07:05:36.879Z,100987.34
2024-01-25T07:08:04.492Z,100989.88
2024-01-25T07:10:31.593Z,100997.81
2024-01-25T07:12:58.753Z,100998.97
2024-01-25T07:15:25.709Z,101002.78
2024-01-25T07:17:52.967Z,100999.75
2024-01-25T07:20:22.606Z,101010.06
2024-01-25T07:22:51.191Z,101014.72
2024-01-25T07:25:18.186Z,101006.13
2024-01-25T07:27:48.930Z,101022.97
2024-01-25T07:30:16.650Z,101010.72
2024-01-25T07:32:43.974Z,101006.53
2024-01-25T07:35:11.462Z,101008.53
2024-01-25T07:37:38.649Z,101017.97
2024-01-25T07:40:06.400Z,101017.50
2024-01-25T07:42:33.547Z,101002.88
2024-01-25T07:45:00.772Z,101006.03
2024-01-25T07:47:27.843Z,101009.75
2024-01-25T07:49:55.074Z,100998.44
2024-01-25T07:52:23.371Z,100992.03
2024-01-25T07:54:51.350Z,100989.81
2024-01-25T07:57:18.712Z,100987.16
2024-01-25T07:59:46.568Z,100981.72
2024-01-25T08:02:20.150Z,101003.06
2024-01-25T08:04:48.657Z,100992.16
2024-01-25T08:07:15.868Z,100986.28
2024-01-25T08:09:44.402Z,100984.84
2024-01-25T08:12:12.177Z,100981.75
2024-01-25T08:14:39.613Z,100994.66
2024-01-25T08:17:12.132Z,101014.25
2024-01-25T08:19:39.498Z,101017.97
2024-01-25T08:22:06.902Z,101006.19
2024-01-25T08:24:45.717Z,101008.03
2024-01-25T08:27:16.171Z,101009.22
2024-01-25T08:29:43.604Z,101009.22
2024-01-25T08:32:17.362Z,101000.31
2024-01-25T08:34:44.453Z,101016.78
2024-01-25T08:37:11.905Z,101012.69
2024-01-25T08:39:39.607Z,101019.69
2024-01-25T08:42:07.851Z,101012.44
2024-01-25T08:44:35.221Z,101007.56
2024-01-25T08:47:05.835Z,101012.59
2024-01-25T08:49:33.594Z,101018.25
2024-01-25T08:52:01.315Z,101008.75
2024-01-25T08:54:28.562Z,101005.91
2024-01-25T08:56:55.631Z,100997.91
2024-01-25T08:59:22.788Z,101013.44
2024-01-25T09:01:49.959Z,101012.63
2024-01-25T09:04:17.651Z,101009.47
2024-01-25T09:06:44.829Z,101009.94
2024-01-25T09:09:14.910Z,100995.56
2024-01-25T09:11:42.009Z,100971.69
2024-01-25T09:14:09.415Z,100967.69
2024-01-25T09:16:38.956Z,100937.47
2024-01-25T09:19:06.672Z,100948.97
2024-01-25T09:21:34.228Z,100981.22
2024-01-25T09:24:01.383Z,101002.41
2024-01-25T09:26:32.379Z,101017.63
2024-01-25T09:29:10.965Z,101014.94
2024-01-25T09:31:38.305Z,101024.44
2024-01-25T09:34:08.658Z,101031.63
2024-01-25T09:36:36.174Z,101023.25
2024-01-25T09:39:05.390Z,101026.06
2024-01-25T09:41:32.951Z,101024.75
2024-01-25T09:44:00.300Z,101011.94
2024-01-25T09:46:28.027Z,101013.28
2024-01-25T09:48:55.642Z,101005.94
2024-01-25T09:51:34.905Z,101016.81
2024-01-25T09:54:06.018Z,101011.28
2024-01-25T09:56:34.499Z,101015.16
2024-01-25T09:59:03.676Z,101020.31
2024-01-25T10:01:30.818Z,101022.59
2024-01-25T10:03:58.298Z,101017.50
2024-01-25T10:06:25.864Z,101015.88
2024-01-25T10:08:54.217Z,101010.84
2024-01-25T10:11:21.285Z,101020.84
2024-01-25T10:13:52.167Z,101011.88
2024-01-25T10:16:20.721Z,101015.19
2024-01-25T10:18:49.717Z,101007.75
2024-01-25T10:21:19.121Z,101002.13
2024-01-25T10:23:48.174Z,100997.53
2024-01-25T10:26:17.165Z,100998.16
2024-01-25T10:28:44.672Z,100995.41
2024-01-25T10:31:12.120Z,100997.06
2024-01-25T10:33:40.260Z,101006.88
2024-01-25T10:36:09.928Z,101001.91
2024-01-25T10:38:38.244Z,101005.81
2024-01-25T10:41:09.663Z,101020.69
2024-01-25T10:43:37.625Z,101011.63
2024-01-25T10:46:06.009Z,101019.84
2024-01-25T10:48:34.171Z,101010.97
2024-01-25T10:51:04.657Z,101012.97
2024-01-25T10:53:34.444Z,101010.72
2024-01-25T10:56:02.832Z,100994.78
2024-01-25T10:58:37.926Z,100993.88
2024-01-25T11:01:15.867Z,100987.59
2024-01-25T11:03:46.985Z,100988.41
2024-01-25T11:06:14.931Z,100985.69
2024-01-25T11:08:42.603Z,100994.19
2024-01-25T11:11:12.348Z,100971.91
2024-01-25T11:13:45.756Z,100971.16
2024-01-25T11:16:19.302Z,100958.28
2024-01-25T11:18:51.394Z,100959.34
2024-01-25T11:21:30.078Z,100938.91
2024-01-25T11:24:04.227Z,100931.28
2024-01-25T11:26:34.239Z,100935.13
2024-01-25T11:29:04.172Z,100923.47
2024-01-25T11:31:31.436Z,100935.25
2024-01-25T11:34:01.330Z,100933.44
2024-01-25T11:36:30.141Z,100930.63
2024-01-25T11:38:58.883Z,100939.44
2024-01-25T11:41:26.285Z,100937.66
2024-01-25T11:43:54.053Z,100919.28
2024-01-25T11:46:21.630Z,100917.06
2024-01-25T11:48:48.742Z,100916.47
2024-01-25T11:51:16.081Z,100911.66
2024-01-25T11:53:43.308Z,100919.75
2024-01-25T11:56:19.322Z,100910.81
2024-01-25T11:58:47.600Z,100910.59
2024-01-25T12:01:15.744Z,100906.69
2024-01-25T12:03:42.967Z,100900.34
2024-01-25T12:06:10.891Z,100901.28
2024-01-25T12:08:44.049Z,100901.06
2024-01-25T12:11:14.940Z,100911.66
2024-01-25T12:13:45.284Z,100916.66
2024-01-25T12:16:13.762Z,100910.19
2024-01-25T12:18:44.331Z,100905.63
2024-01-25T12:21:11.676Z,100908.06
2024-01-25T12:23:40.128Z,100907.25
2024-01-25T12:26:15.152Z,100905.00
2024-01-25T12:28:42.648Z,100905.16
2024-01-25T12:31:10.623Z,100911.44
2024-01-25T12:33:38.116Z,100901.28
2024-01-25T12:36:06.285Z,100897.56
2024-01-25T12:38:36.632Z,100895.91
2024-01-25T12:41:04.595Z,100901.75
2024-01-25T12:43:32.621Z,100902.81
2024-01-25T12:46:09.414Z,100895.97
2024-01-25T12:48:46.459Z,100882.28
2024-01-25T12:51:15.757Z,100876.47
2024-01-25T12:53:43.010Z,100883.31
2024-01-25T12:56:10.657Z,100879.75
2024-01-25T12:58:37.618Z,100879.56
2024-01-25T13:01:06.262Z,100865.06
2024-01-25T13:03:34.290Z,100872.31
2024-01-25T13:06:04.806Z,100859.88
2024-01-25T13:08:32.007Z,100861.91
2024-01-25T13:10:59.465Z,100856.09
2024-01-25T13:13:27.238Z,100867.31
2024-01-25T13:15:54.660Z,100855.69
2024-01-25T13:18:21.824Z,100869.41
2024-01-25T13:20:49.958Z,100864.84
2024-01-25T13:23:17.346Z,100861.69
2024-01-25T13:25:44.577Z,100860.06
2024-01-25T13:28:11.700Z,100860.44
2024-01-25T13:30:38.789Z,100862.69
2024-01-25T13:33:06.081Z,100862.94
2024-01-25T13:35:33.433Z,100856.69
2024-01-25T13:38:03.287Z,100864.38
2024-01-25T13:40:30.518Z,100865.19
2024-01-25T13:42:58.069Z,100859.81
2024-01-25T13:45:25.159Z,100851.28
2024-01-25T13:47:52.381Z,100855.41
2024-01-25T13:50:19.346Z,100855.03
2024-01-25T13:52:46.244Z,100857.72
2024-01-25T13:55:13.275Z,100855.06
2024-01-25T13:57:40.431Z,100857.13
2024-01-25T14:00:10.171Z,100857.97
2024-01-25T14:02:37.382Z,100847.34
2024-01-25T14:05:04.612Z,100846.50
2024-01-25T14:07:31.626Z,100850.22
2024-01-25T14:10:00.025Z,100849.84
2024-01-25T14:12:27.217Z,100841.75
2024-01-25T14:14:54.531Z,100849.84
2024-01-25T14:17:22.821Z,100850.91
2024-01-25T14:19:50.363Z,100852.16
2024-01-25T14:22:28.280Z,100849.88
2024-01-25T14:24:59.474Z,100849.69
2024-01-25T14:27:28.197Z,100853.00
2024-01-25T14:29:55.506Z,100850.53
2024-01-25T14:32:24.491Z,100853.22
2024-01-25T14:34:54.743Z,100843.06
2024-01-25T14:37:24.307Z,100837.84
2024-01-25T14:40:02.827Z,100844.06
2024-01-25T14:42:40.223Z,100840.31
2024-01-25T14:45:07.774Z,100840.34
2024-01-25T14:47:34.997Z,100834.09
2024-01-25T14:50:02.033Z,100835.72
2024-01-25T14:52:29.126Z,100833.44
2024-01-25T14:54:56.097Z,100842.34
2024-01-25T14:57:23.164Z,100843.56
2024-01-25T14:59:50.199Z,100847.28
2024-01-25T15:02:17.203Z,100843.94
2024-01-25T15:04:44.219Z,100846.19
2024-01-25T15:07:11.640Z,100849.47
2024-01-25T15:09:38.769Z,100853.78
2024-01-25T15:12:09.554Z,100856.69
2024-01-25T15:14:36.904Z,100857.34
2024-01-25T15:17:04.006Z,100855.00
2024-01-25T15:19:31.055Z,100851.84
2024-01-25T15:21:58.101Z,100849.53
2024-01-25T15:24:25.345Z,100848.25
2024-01-25T15:26:52.334Z,100848.41
2024-01-25T15:29:19.443Z,100857.16
2024-01-25T15:31:46.375Z,100853.16
2024-01-25T15:34:13.812Z,100856.53
2024-01-25T15:36:45.089Z,100851.28
2024-01-25T15:39:12.592Z,100855.19
2024-01-25T15:41:39.669Z,100854.19
2024-01-25T15:44:06.757Z,100850.31
2024-01-25T15:46:35.067Z,100848.59
2024-01-25T15:49:02.879Z,100854.97
2024-01-25T15:51:29.995Z,100850.78
2024-01-25T15:53:57.066Z,100858.22
2024-01-25T15:56:24.388Z,100855.09
2024-01-25T15:58:51.456Z,100860.03
2024-01-25T16:01:18.586Z,100852.25
2024-01-25T16:03:45.851Z,100849.94
2024-01-25T16:06:13.964Z,100852.16
2024-01-25T16:08:41.757Z,100852.56
2024-01-25T16:11:08.742Z,100848.38
2024-01-25T16:13:35.944Z,100856.09
2024-01-25T16:16:02.976Z,100846.19
2024-01-25T16:18:30.189Z,100853.22
2024-01-25T16:20:57.364Z,100851.38
2024-01-25T16:23:24.816Z,100855.13
2024-01-25T16:25:51.808Z,100849.41
2024-01-25T16:28:19.202Z,100851.81
2024-01-25T16:30:51.010Z,100858.34
2024-01-25T16:33:18.484Z,100859.56
2024-01-25T16:35:46.340Z,100865.69
2024-01-25T16:38:14.057Z,100867.88
2024-01-25T16:40:43.008Z,100867.50
2024-01-25T16:43:10.500Z,100872.22
2024-01-25T16:45:37.530Z,100875.19
2024-01-25T16:48:05.032Z,100874.97
2024-01-25T16:50:32.147Z,100880.25
2024-01-25T16:52:59.559Z,100879.25
2024-01-25T16:55:31.831Z,100884.06
2024-01-25T16:57:59.415Z,100872.50
2024-01-25T17:00:27.714Z,100880.34
2024-01-25T17:02:55.363Z,100877.34
2024-01-25T17:05:22.852Z,100880.91
2024-01-25T17:07:50.723Z,100884.06
2024-01-25T17:10:25.807Z,100880.81
2024-01-25T17:12:55.127Z,100885.81
2024-01-25T17:15:22.542Z,100881.81
2024-01-25T17:17:53.435Z,100882.38
2024-01-25T17:20:21.409Z,100885.75
2024-01-25T17:22:48.770Z,100886.25
2024-01-25T17:25:16.130Z,100882.59
2024-01-25T17:27:44.150Z,100891.72
2024-01-25T17:30:13.430Z,100888.81
2024-01-25T17:32:43.008Z,100895.44
2024-01-25T17:35:10.481Z,100901.06
2024-01-25T17:37:37.887Z,100891.91
2024-01-25T17:40:07.615Z,100900.69
2024-01-25T17:42:38.615Z,100900.81
2024-01-25T17:45:06.457Z,100897.81
2024-01-25T17:47:34.067Z,100900.50
2024-01-25T17:50:01.915Z,100901.47
2024-01-25T17:52:29.415Z,100904.50
2024-01-25T17:54:57.196Z,100892.78
2024-01-25T17:57:25.107Z,100901.97
2024-01-25T17:59:52.607Z,100892.81
2024-01-25T18:02:20.283Z,100896.22
2024-01-25T18:04:47.462Z,100895.03
2024-01-25T18:07:17.111Z,100890.88
2024-01-25T18:09:45.295Z,100896.56
2024-01-25T18:12:13.352Z,100899.97
2024-01-25T18:14:43.460Z,100900.28
2024-01-25T18:17:11.102Z,100905.81
2024-01-25T18:19:38.445Z,100910.31
2024-01-25T18:22:06.685Z,100908.63
2024-01-25T18:24:34.101Z,100920.44
2024-01-25T18:27:02.574Z,100914.28
2024-01-25T18:29:31.654Z,100917.47
2024-01-25T18:32:02.500Z,100912.28
2024-01-25T18:34:32.917Z,100916.31
2024-01-25T18:37:00.443Z,100910.97
2024-01-25T18:39:29.450Z,100900.09
2024-01-25T18:41:57.934Z,100908.28
2024-01-25T18:44:25.594Z,100909.69
2024-01-25T18:46:53.554Z,100904.03
2024-01-25T18:49:21.158Z,100915.25
2024-01-25T18:51:51.218Z,100916.22
2024-01-25T18:54:18.969Z,100906.25
2024-01-25T18:56:46.814Z,100918.72
2024-01-25T18:59:14.616Z,100914.59
2024-01-25T19:01:45.360Z,100909.72
2024-01-25T19:04:13.232Z,100908.38
2024-01-25T19:06:45.964Z,100909.72
2024-01-25T19:09:13.166Z,100914.91
2024-01-25T19:11:40.127Z,100910.41
2024-01-25T19:14:07.358Z,100913.72
2024-01-25T19:16:34.302Z,100919.91
2024-01-25T19:19:01.400Z,100914.72
2024-01-25T19:21:28.958Z,100922.88
2024-01-25T19:23:56.056Z,100919.63
2024-01-25T19:26:23.413Z,100924.63
2024-01-25T19:28:50.898Z,100925.06
2024-01-25T19:31:17.985Z,100921.72
2024-01-25T19:33:45.497Z,100938.41
2024-01-25T19:36:12.511Z,100949.69
2024-01-25T19:38:42.345Z,100940.19
2024-01-25T19:41:10.400Z,100944.72
2024-01-25T19:43:37.827Z,100944.47
2024-01-25T19:46:07.984Z,100935.81
2024-01-25T19:48:35.336Z,100933.16
2024-01-25T19:51:02.517Z,100928.50
2024-01-25T19:53:29.485Z,100926.13
2024-01-25T19:55:56.561Z,100935.97
2024-01-25T19:58:27.601Z,100945.97
2024-01-25T20:00:55.500Z,100941.59
2024-01-25T20:03:23.481Z,100951.75
2024-01-25T20:05:51.708Z,100954.88
2024-01-25T20:08:19.038Z,100952.81
2024-01-25T20:10:46.082Z,100959.16
2024-01-25T20:13:13.105Z,100964.03
2024-01-25T20:15:42.505Z,100966.03
2024-01-25T20:18:09.675Z,100970.75
2024-01-25T20:20:43.313Z,100967.25
2024-01-25T20:23:15.663Z,100976.19
2024-01-25T20:25:42.889Z,100978.34
2024-01-25T20:28:10.612Z,100969.28
2024-01-25T20:30:42.384Z,100973.34
2024-01-25T20:33:12.191Z,100975.81
2024-01-25T20:35:41.207Z,100979.19
2024-01-25T20:38:08.825Z,100983.13
2024-01-25T20:40:38.215Z,100981.38
2024-01-25T20:43:05.232Z,100985.88
2024-01-25T20:45:32.509Z,100979.34
2024-01-25T20:48:00.922Z,100983.59
2024-01-25T20:50:36.914Z,100979.81
2024-01-25T20:53:06.343Z,100971.88
2024-01-25T20:55:34.875Z,100979.72
2024-01-25T20:58:02.637Z,100976.78
2024-01-25T21:00:30.120Z,100974.81
2024-01-25T21:02:57.431Z,100974.81
2024-01-25T21:05:24.933Z,100971.38
2024-01-25T21:07:52.249Z,100978.03
2024-01-25T21:13:03.948Z,100971.28
2024-01-25T21:15:31.045Z,100983.28
2024-01-25T21:17:58.492Z,100977.78
2024-01-25T21:20:25.442Z,100997.53
2024-01-25T21:22:52.595Z,100997.19
2024-01-25T21:25:20.506Z,100998.41
2024-01-25T21:27:47.808Z,101001.00
2024-01-25T21:30:15.286Z,100996.06
2024-01-25T21:32:43.202Z,101001.44
2024-01-25T21:35:15.296Z,101005.94
2024-01-25T21:37:44.490Z,101010.47
2024-01-25T21:40:17.020Z,101010.53
2024-01-25T21:42:44.551Z,101024.50
2024-01-25T21:45:14.089Z,101030.19
2024-01-25T21:47:44.722Z,101025.34
2024-01-25T21:50:15.021Z,101035.94
2024-01-25T21:52:45.357Z,101033.06
2024-01-25T21:55:13.270Z,101027.88
2024-01-25T21:57:50.497Z,101033.38
2024-01-25T22:00:21.053Z,101035.41
2024-01-25T22:02:51.806Z,101033.97
2024-01-25T22:05:28.929Z,101053.38
2024-01-25T22:07:58.063Z,101058.34
2024-01-25T22:10:31.803Z,101056.22
2024-01-25T22:13:02.475Z,101061.38
2024-01-25T22:15:32.902Z,101060.88
2024-01-25T22:18:00.223Z,101059.59
2024-01-25T22:20:27.164Z,101069.56
2024-01-25T22:22:54.125Z,101071.25
2024-01-25T22:25:21.190Z,101074.75
2024-01-25T22:27:48.458Z,101078.78
2024-01-25T22:30:20.397Z,101084.66
2024-01-25T22:32:48.136Z,101087.41
2024-01-25T22:35:17.098Z,101082.94
2024-01-25T22:37:44.648Z,101092.16
2024-01-25T22:40:12.605Z,101090.19
2024-01-25T22:42:42.660Z,101095.19
2024-01-25T22:45:11.881Z,101101.16
2024-01-25T22:47:38.940Z,101104.72
2024-01-25T22:50:10.929Z,101096.69
2024-01-25T22:52:44.667Z,101105.84
2024-01-25T22:55:12.421Z,101107.19
2024-01-25T22:57:39.429Z,101107.47
2024-01-25T23:00:15.491Z,101105.94
2024-01-25T23:02:42.895Z,101110.28
2024-01-25T23:05:10.900Z,101110.47
2024-01-25T23:07:37.964Z,101108.47
2024-01-25T23:10:05.298Z,101110.97
2024-01-25T23:12:32.528Z,101115.81
2024-01-25T23:14:59.540Z,101122.34
2024-01-25T23:17:26.509Z,101123.81
2024-01-25T23:19:53.564Z,101124.31
2024-01-25T23:22:20.667Z,101113.63
2024-01-25T23:24:47.889Z,101116.78
2024-01-25T23:27:14.898Z,101117.56
2024-01-25T23:29:43.762Z,101127.19
2024-01-25T23:32:10.847Z,101125.16
2024-01-25T23:34:40.003Z,101130.34
2024-01-25T23:37:07.139Z,101140.81
2024-01-25T23:39:34.573Z,101135.59
2024-01-25T23:42:02.001Z,101123.47
2024-01-25T23:44:29.241Z,101128.47
2024-01-25T23:46:56.312Z,101120.94
2024-01-25T23:49:23.369Z,101128.38
2024-01-25T23:51:50.993Z,101132.88
2024-01-25T23:54:18.010Z,101135.69
2024-01-25T23:56:45.104Z,101136.88
2024-01-25T23:59:14.199Z,101143.69
